Missouri River (Missouri), Saint Joseph (06818000)

StateMissouriLatestUnknown (59100 cfs)
RiverMissouri RiverRatingObservedEstimated
Updated2020-07-13 19:30 (26 minutes ago)Flood - The river is flooding. Obstacles can be treacherous or deadly. The river should be avoided at this stage for casual trips and definitely for the inexperienced. Trips should be attempted only with protective gear and equipment.Flood(none)(none)
Discharge59100 cfs (median: 53200 cfs)High - The river is high and potentially dangerous, especially for the young and / or inexperienced. Normal stream obstacles are sometimes difficult to navigate. Extended distances can be attempted, but canoe travel may not be advisable.High(none)(none)
Height10.74 feetGood - Conditions are ideal for a canoe or kayak. Boats typically will drag on fewer than one-quarter of riffles, if at all, and portages are unnecessary or rare. Normal float lengths can be attempted without a problem.Good(none)(none)
TrendSteady (falling over 24 hours)Low - River is low but can still be floated. Some riffles are okay but most come with significant dragging and might need a portage. Float lengths should be reduced to accommodate low flow, dragging, and portages.Low(none)(none)
USGSExternal icon USGS Site (External icon Google Maps)Poor - River is too low to float comfortably. Most or all riffles will drag or must be portaged and some obstacles (such as slick shelf rock) cause undue problems. Avoid the river at this stage for casual paddling trips.Poor(none)(none)

Trending Data

Plot Image

Trips for Missouri River (Missouri), Saint Joseph (06818000)

DateStartEndDistanceConditionDischargeHeightFishingDetails

A total of 0 rows are displayed.

Condition Descriptions

Fishing Conditions

Fish Species

Notes

Classic Trip List

The classic River Trips application is still available for use. It is updated with the new system using a data retrofit. It is no longer maintained. The original River Trips application is no longer updated (as of 1 Dec 2016) but can be checked for errors or for the condition of the data before it was converted to the new system.

Gauge Data Table

ObservationHeightDischargeMaximum
Discharge
Minimum
Discharge
Mean
Discharge
P05P10P20P25P50
(Median)
P75P80P90P95
2020-07-13 19:30 10.74 59100 226000 (2011) 32600 (1989) 60900 32900 35200 38400 39400 53200 70200 75800 95200 127000
2020-07-13 18:30 10.74 59100 226000 (2011) 32600 (1989) 60900 32900 35200 38400 39400 53200 70200 75800 95200 127000
2020-07-13 17:30 10.77 59300 226000 (2011) 32600 (1989) 60900 32900 35200 38400 39400 53200 70200 75800 95200 127000
2020-07-13 16:30 10.80 59500 226000 (2011) 32600 (1989) 60900 32900 35200 38400 39400 53200 70200 75800 95200 127000
2020-07-13 15:30 10.80 59500 226000 (2011) 32600 (1989) 60900 32900 35200 38400 39400 53200 70200 75800 95200 127000
2020-07-13 14:30 10.81 59500 226000 (2011) 32600 (1989) 60900 32900 35200 38400 39400 53200 70200 75800 95200 127000
2020-07-13 13:30 10.83 59600 226000 (2011) 32600 (1989) 60900 32900 35200 38400 39400 53200 70200 75800 95200 127000
2020-07-13 12:30 10.84 59700 226000 (2011) 32600 (1989) 60900 32900 35200 38400 39400 53200 70200 75800 95200 127000
2020-07-13 11:30 10.83 59600 226000 (2011) 32600 (1989) 60900 32900 35200 38400 39400 53200 70200 75800 95200 127000
2020-07-13 10:30 10.86 59800 226000 (2011) 32600 (1989) 60900 32900 35200 38400 39400 53200 70200 75800 95200 127000
2020-07-13 09:30 10.86 59800 226000 (2011) 32600 (1989) 60900 32900 35200 38400 39400 53200 70200 75800 95200 127000
2020-07-13 08:30 10.88 59900 226000 (2011) 32600 (1989) 60900 32900 35200 38400 39400 53200 70200 75800 95200 127000
2020-07-13 07:30 10.88 59900 226000 (2011) 32600 (1989) 60900 32900 35200 38400 39400 53200 70200 75800 95200 127000
2020-07-13 06:30 10.89 60000 226000 (2011) 32600 (1989) 60900 32900 35200 38400 39400 53200 70200 75800 95200 127000
2020-07-13 05:30 10.89 60000 226000 (2011) 32600 (1989) 60900 32900 35200 38400 39400 53200 70200 75800 95200 127000
2020-07-13 04:30 10.90 60000 226000 (2011) 32600 (1989) 60900 32900 35200 38400 39400 53200 70200 75800 95200 127000
2020-07-13 03:30 10.91 60100 226000 (2011) 32600 (1989) 60900 32900 35200 38400 39400 53200 70200 75800 95200 127000
2020-07-13 02:30 10.92 60200 226000 (2011) 32600 (1989) 60900 32900 35200 38400 39400 53200 70200 75800 95200 127000
2020-07-13 01:30 10.92 60200 226000 (2011) 32600 (1989) 60900 32900 35200 38400 39400 53200 70200 75800 95200 127000
2020-07-13 00:30 10.93 60200 226000 (2011) 32600 (1989) 60900 32900 35200 38400 39400 53200 70200 75800 95200 127000
2020-07-12 23:30 10.95 60300 231000 (2011) 32300 (2002) 61200 33100 34800 39500 39900 54100 72200 77300 104000 117000
2020-07-12 22:30 10.96 60400 231000 (2011) 32300 (2002) 61200 33100 34800 39500 39900 54100 72200 77300 104000 117000
2020-07-12 21:30 10.97 60400 231000 (2011) 32300 (2002) 61200 33100 34800 39500 39900 54100 72200 77300 104000 117000
2020-07-12 20:30 11.00 60600 231000 (2011) 32300 (2002) 61200 33100 34800 39500 39900 54100 72200 77300 104000 117000
2020-07-12 19:30 11.00 60600 231000 (2011) 32300 (2002) 61200 33100 34800 39500 39900 54100 72200 77300 104000 117000
2020-07-12 18:30 10.98 60500 231000 (2011) 32300 (2002) 61200 33100 34800 39500 39900 54100 72200 77300 104000 117000
2020-07-12 17:30 11.01 60700 231000 (2011) 32300 (2002) 61200 33100 34800 39500 39900 54100 72200 77300 104000 117000
2020-07-12 16:30 10.99 60500 231000 (2011) 32300 (2002) 61200 33100 34800 39500 39900 54100 72200 77300 104000 117000
2020-07-12 15:30 11.00 60600 231000 (2011) 32300 (2002) 61200 33100 34800 39500 39900 54100 72200 77300 104000 117000
2020-07-12 14:30 11.00 60600 231000 (2011) 32300 (2002) 61200 33100 34800 39500 39900 54100 72200 77300 104000 117000
2020-07-12 13:30 11.01 60700 231000 (2011) 32300 (2002) 61200 33100 34800 39500 39900 54100 72200 77300 104000 117000
2020-07-12 12:30 10.99 60500 231000 (2011) 32300 (2002) 61200 33100 34800 39500 39900 54100 72200 77300 104000 117000
2020-07-12 11:30 10.98 60500 231000 (2011) 32300 (2002) 61200 33100 34800 39500 39900 54100 72200 77300 104000 117000
2020-07-12 10:30 10.97 60400 231000 (2011) 32300 (2002) 61200 33100 34800 39500 39900 54100 72200 77300 104000 117000
2020-07-12 09:30 10.97 60400 231000 (2011) 32300 (2002) 61200 33100 34800 39500 39900 54100 72200 77300 104000 117000
2020-07-12 08:30 10.95 60300 231000 (2011) 32300 (2002) 61200 33100 34800 39500 39900 54100 72200 77300 104000 117000
2020-07-12 07:30 10.94 60300 231000 (2011) 32300 (2002) 61200 33100 34800 39500 39900 54100 72200 77300 104000 117000
2020-07-12 06:30 10.92 60200 231000 (2011) 32300 (2002) 61200 33100 34800 39500 39900 54100 72200 77300 104000 117000
2020-07-12 05:30 10.92 60200 231000 (2011) 32300 (2002) 61200 33100 34800 39500 39900 54100 72200 77300 104000 117000
2020-07-12 04:30 10.89 60000 231000 (2011) 32300 (2002) 61200 33100 34800 39500 39900 54100 72200 77300 104000 117000
2020-07-12 03:30 10.88 59900 231000 (2011) 32300 (2002) 61200 33100 34800 39500 39900 54100 72200 77300 104000 117000
2020-07-12 02:30 10.88 59900 231000 (2011) 32300 (2002) 61200 33100 34800 39500 39900 54100 72200 77300 104000 117000
2020-07-12 01:30 10.85 59800 231000 (2011) 32300 (2002) 61200 33100 34800 39500 39900 54100 72200 77300 104000 117000
2020-07-12 00:30 10.86 59800 231000 (2011) 32300 (2002) 61200 33100 34800 39500 39900 54100 72200 77300 104000 117000
2020-07-11 23:30 10.84 59700 239000 (2011) 31500 (2002) 61500 33400 34600 38400 39900 50600 70400 79800 105000 125000
2020-07-11 22:30 10.82 59600 239000 (2011) 31500 (2002) 61500 33400 34600 38400 39900 50600 70400 79800 105000 125000
2020-07-11 21:30 10.64 58600 239000 (2011) 31500 (2002) 61500 33400 34600 38400 39900 50600 70400 79800 105000 125000
2020-07-11 20:30 10.79 59400 239000 (2011) 31500 (2002) 61500 33400 34600 38400 39900 50600 70400 79800 105000 125000
2020-07-11 19:30 10.80 59500 239000 (2011) 31500 (2002) 61500 33400 34600 38400 39900 50600 70400 79800 105000 125000
2020-07-11 18:30 10.79 59400 239000 (2011) 31500 (2002) 61500 33400 34600 38400 39900 50600 70400 79800 105000 125000
2020-07-11 17:30 10.79 59400 239000 (2011) 31500 (2002) 61500 33400 34600 38400 39900 50600 70400 79800 105000 125000
2020-07-11 16:30 10.80 59500 239000 (2011) 31500 (2002) 61500 33400 34600 38400 39900 50600 70400 79800 105000 125000
2020-07-11 15:30 10.78 59400 239000 (2011) 31500 (2002) 61500 33400 34600 38400 39900 50600 70400 79800 105000 125000
2020-07-11 14:30 10.78 59400 239000 (2011) 31500 (2002) 61500 33400 34600 38400 39900 50600 70400 79800 105000 125000
2020-07-11 13:30 10.80 59500 239000 (2011) 31500 (2002) 61500 33400 34600 38400 39900 50600 70400 79800 105000 125000
2020-07-11 12:30 10.81 59500 239000 (2011) 31500 (2002) 61500 33400 34600 38400 39900 50600 70400 79800 105000 125000
2020-07-11 11:30 10.79 59400 239000 (2011) 31500 (2002) 61500 33400 34600 38400 39900 50600 70400 79800 105000 125000
2020-07-11 10:30 10.80 59500 239000 (2011) 31500 (2002) 61500 33400 34600 38400 39900 50600 70400 79800 105000 125000
2020-07-11 09:30 10.81 59500 239000 (2011) 31500 (2002) 61500 33400 34600 38400 39900 50600 70400 79800 105000 125000
2020-07-11 08:30 10.82 59600 239000 (2011) 31500 (2002) 61500 33400 34600 38400 39900 50600 70400 79800 105000 125000
2020-07-11 07:30 10.82 59600 239000 (2011) 31500 (2002) 61500 33400 34600 38400 39900 50600 70400 79800 105000 125000
2020-07-11 06:30 10.84 59700 239000 (2011) 31500 (2002) 61500 33400 34600 38400 39900 50600 70400 79800 105000 125000
2020-07-11 05:30 10.85 59800 239000 (2011) 31500 (2002) 61500 33400 34600 38400 39900 50600 70400 79800 105000 125000
2020-07-11 04:30 10.86 59800 239000 (2011) 31500 (2002) 61500 33400 34600 38400 39900 50600 70400 79800 105000 125000
2020-07-11 03:30 10.87 59900 239000 (2011) 31500 (2002) 61500 33400 34600 38400 39900 50600 70400 79800 105000 125000
2020-07-11 02:30 10.89 60000 239000 (2011) 31500 (2002) 61500 33400 34600 38400 39900 50600 70400 79800 105000 125000
2020-07-11 01:30 10.90 60000 239000 (2011) 31500 (2002) 61500 33400 34600 38400 39900 50600 70400 79800 105000 125000
2020-07-11 00:30 10.91 60100 239000 (2011) 31500 (2002) 61500 33400 34600 38400 39900 50600 70400 79800 105000 125000
2020-07-10 23:30 10.90 60000 250000 (2011) 31600 (2002) 61600 33900 34800 39400 39900 50400 68100 82000 97000 120000
2020-07-10 22:30 10.94 60300 250000 (2011) 31600 (2002) 61600 33900 34800 39400 39900 50400 68100 82000 97000 120000
2020-07-10 21:30 10.95 60300 250000 (2011) 31600 (2002) 61600 33900 34800 39400 39900 50400 68100 82000 97000 120000
2020-07-10 20:30 10.97 60400 250000 (2011) 31600 (2002) 61600 33900 34800 39400 39900 50400 68100 82000 97000 120000
2020-07-10 19:30 10.99 60500 250000 (2011) 31600 (2002) 61600 33900 34800 39400 39900 50400 68100 82000 97000 120000
2020-07-10 18:30 11.02 60700 250000 (2011) 31600 (2002) 61600 33900 34800 39400 39900 50400 68100 82000 97000 120000
2020-07-10 17:30 11.04 60800 250000 (2011) 31600 (2002) 61600 33900 34800 39400 39900 50400 68100 82000 97000 120000
2020-07-10 16:30 11.04 60800 250000 (2011) 31600 (2002) 61600 33900 34800 39400 39900 50400 68100 82000 97000 120000
2020-07-10 15:30 11.04 60800 250000 (2011) 31600 (2002) 61600 33900 34800 39400 39900 50400 68100 82000 97000 120000
2020-07-10 14:30 11.06 60900 250000 (2011) 31600 (2002) 61600 33900 34800 39400 39900 50400 68100 82000 97000 120000
2020-07-10 13:30 11.07 61000 250000 (2011) 31600 (2002) 61600 33900 34800 39400 39900 50400 68100 82000 97000 120000
2020-07-10 12:30 11.08 61100 250000 (2011) 31600 (2002) 61600 33900 34800 39400 39900 50400 68100 82000 97000 120000
2020-07-10 11:30 11.08 61100 250000 (2011) 31600 (2002) 61600 33900 34800 39400 39900 50400 68100 82000 97000 120000
2020-07-10 10:30 11.09 61100 250000 (2011) 31600 (2002) 61600 33900 34800 39400 39900 50400 68100 82000 97000 120000
2020-07-10 09:30 11.08 61100 250000 (2011) 31600 (2002) 61600 33900 34800 39400 39900 50400 68100 82000 97000 120000
2020-07-10 08:30 11.09 61100 250000 (2011) 31600 (2002) 61600 33900 34800 39400 39900 50400 68100 82000 97000 120000
2020-07-10 07:30 11.07 61000 250000 (2011) 31600 (2002) 61600 33900 34800 39400 39900 50400 68100 82000 97000 120000
2020-07-10 06:30 11.07 61000 250000 (2011) 31600 (2002) 61600 33900 34800 39400 39900 50400 68100 82000 97000 120000
2020-07-10 05:30 11.06 60900 250000 (2011) 31600 (2002) 61600 33900 34800 39400 39900 50400 68100 82000 97000 120000
2020-07-10 04:30 11.05 60900 250000 (2011) 31600 (2002) 61600 33900 34800 39400 39900 50400 68100 82000 97000 120000
2020-07-10 03:30 11.06 60900 250000 (2011) 31600 (2002) 61600 33900 34800 39400 39900 50400 68100 82000 97000 120000
2020-07-10 02:30 11.07 61000 250000 (2011) 31600 (2002) 61600 33900 34800 39400 39900 50400 68100 82000 97000 120000
2020-07-10 01:30 11.08 61100 250000 (2011) 31600 (2002) 61600 33900 34800 39400 39900 50400 68100 82000 97000 120000
2020-07-10 00:30 11.06 60900 250000 (2011) 31600 (2002) 61600 33900 34800 39400 39900 50400 68100 82000 97000 120000
2020-07-09 23:30 11.06 60900 262000 (2011) 31600 (2002) 61700 33400 36200 37300 39400 49600 74000 78400 97000 121000
2020-07-09 22:30 11.04 60800 262000 (2011) 31600 (2002) 61700 33400 36200 37300 39400 49600 74000 78400 97000 121000
2020-07-09 21:30 11.05 60900 262000 (2011) 31600 (2002) 61700 33400 36200 37300 39400 49600 74000 78400 97000 121000
2020-07-09 20:30 11.06 60900 262000 (2011) 31600 (2002) 61700 33400 36200 37300 39400 49600 74000 78400 97000 121000
2020-07-09 19:30 11.07 61000 262000 (2011) 31600 (2002) 61700 33400 36200 37300 39400 49600 74000 78400 97000 121000
2020-07-09 18:30 11.07 61000 262000 (2011) 31600 (2002) 61700 33400 36200 37300 39400 49600 74000 78400 97000 121000
2020-07-09 17:30 11.08 61100 262000 (2011) 31600 (2002) 61700 33400 36200 37300 39400 49600 74000 78400 97000 121000
2020-07-09 16:30 11.07 61000 262000 (2011) 31600 (2002) 61700 33400 36200 37300 39400 49600 74000 78400 97000 121000
2020-07-09 15:30 11.08 61100 262000 (2011) 31600 (2002) 61700 33400 36200 37300 39400 49600 74000 78400 97000 121000
2020-07-09 14:30 11.08 61100 262000 (2011) 31600 (2002) 61700 33400 36200 37300 39400 49600 74000 78400 97000 121000
2020-07-09 13:30 11.08 61100 262000 (2011) 31600 (2002) 61700 33400 36200 37300 39400 49600 74000 78400 97000 121000
2020-07-09 12:30 11.08 61100 262000 (2011) 31600 (2002) 61700 33400 36200 37300 39400 49600 74000 78400 97000 121000
2020-07-09 11:30 11.07 61000 262000 (2011) 31600 (2002) 61700 33400 36200 37300 39400 49600 74000 78400 97000 121000
2020-07-09 10:30 11.05 60900 262000 (2011) 31600 (2002) 61700 33400 36200 37300 39400 49600 74000 78400 97000 121000
2020-07-09 09:30 11.05 60900 262000 (2011) 31600 (2002) 61700 33400 36200 37300 39400 49600 74000 78400 97000 121000
2020-07-09 08:30 11.03 60800 262000 (2011) 31600 (2002) 61700 33400 36200 37300 39400 49600 74000 78400 97000 121000
2020-07-09 07:30 11.02 60700 262000 (2011) 31600 (2002) 61700 33400 36200 37300 39400 49600 74000 78400 97000 121000
2020-07-09 06:30 11.00 60600 262000 (2011) 31600 (2002) 61700 33400 36200 37300 39400 49600 74000 78400 97000 121000
2020-07-09 05:30 11.02 60700 262000 (2011) 31600 (2002) 61700 33400 36200 37300 39400 49600 74000 78400 97000 121000
2020-07-09 04:30 11.02 60700 262000 (2011) 31600 (2002) 61700 33400 36200 37300 39400 49600 74000 78400 97000 121000
2020-07-09 03:30 11.01 60700 262000 (2011) 31600 (2002) 61700 33400 36200 37300 39400 49600 74000 78400 97000 121000
2020-07-09 02:30 11.01 60700 262000 (2011) 31600 (2002) 61700 33400 36200 37300 39400 49600 74000 78400 97000 121000
2020-07-09 01:30 11.00 60600 262000 (2011) 31600 (2002) 61700 33400 36200 37300 39400 49600 74000 78400 97000 121000
2020-07-09 00:30 11.00 60600 262000 (2011) 31600 (2002) 61700 33400 36200 37300 39400 49600 74000 78400 97000 121000
2020-07-08 23:30 11.01 60700 264000 (2011) 31700 (2002) 62100 34100 35900 38800 39800 48700 71500 81400 104000 126000
2020-07-08 22:30 11.00 60600 264000 (2011) 31700 (2002) 62100 34100 35900 38800 39800 48700 71500 81400 104000 126000
2020-07-08 21:30 11.01 60700 264000 (2011) 31700 (2002) 62100 34100 35900 38800 39800 48700 71500 81400 104000 126000
2020-07-08 20:30 11.03 60800 264000 (2011) 31700 (2002) 62100 34100 35900 38800 39800 48700 71500 81400 104000 126000
2020-07-08 19:30 11.03 60800 264000 (2011) 31700 (2002) 62100 34100 35900 38800 39800 48700 71500 81400 104000 126000
2020-07-08 18:30 11.03 60800 264000 (2011) 31700 (2002) 62100 34100 35900 38800 39800 48700 71500 81400 104000 126000
2020-07-08 17:30 11.04 60800 264000 (2011) 31700 (2002) 62100 34100 35900 38800 39800 48700 71500 81400 104000 126000
2020-07-08 16:30 11.05 60900 264000 (2011) 31700 (2002) 62100 34100 35900 38800 39800 48700 71500 81400 104000 126000
2020-07-08 15:30 11.05 60900 264000 (2011) 31700 (2002) 62100 34100 35900 38800 39800 48700 71500 81400 104000 126000
2020-07-08 14:30 11.06 60900 264000 (2011) 31700 (2002) 62100 34100 35900 38800 39800 48700 71500 81400 104000 126000
2020-07-08 13:30 11.07 61000 264000 (2011) 31700 (2002) 62100 34100 35900 38800 39800 48700 71500 81400 104000 126000
2020-07-08 12:30 11.07 61000 264000 (2011) 31700 (2002) 62100 34100 35900 38800 39800 48700 71500 81400 104000 126000
2020-07-08 11:30 11.09 61100 264000 (2011) 31700 (2002) 62100 34100 35900 38800 39800 48700 71500 81400 104000 126000
2020-07-08 10:30 11.09 61100 264000 (2011) 31700 (2002) 62100 34100 35900 38800 39800 48700 71500 81400 104000 126000
2020-07-08 09:30 11.08 61100 264000 (2011) 31700 (2002) 62100 34100 35900 38800 39800 48700 71500 81400 104000 126000
2020-07-08 08:30 11.07 61000 264000 (2011) 31700 (2002) 62100 34100 35900 38800 39800 48700 71500 81400 104000 126000
2020-07-08 07:30 11.08 61100 264000 (2011) 31700 (2002) 62100 34100 35900 38800 39800 48700 71500 81400 104000 126000
2020-07-08 06:30 11.09 61100 264000 (2011) 31700 (2002) 62100 34100 35900 38800 39800 48700 71500 81400 104000 126000
2020-07-08 05:30 11.07 61000 264000 (2011) 31700 (2002) 62100 34100 35900 38800 39800 48700 71500 81400 104000 126000
2020-07-08 04:30 11.07 61000 264000 (2011) 31700 (2002) 62100 34100 35900 38800 39800 48700 71500 81400 104000 126000
2020-07-08 03:30 11.06 60900 264000 (2011) 31700 (2002) 62100 34100 35900 38800 39800 48700 71500 81400 104000 126000
2020-07-08 02:30 11.07 61000 264000 (2011) 31700 (2002) 62100 34100 35900 38800 39800 48700 71500 81400 104000 126000
2020-07-08 01:30 11.08 61100 264000 (2011) 31700 (2002) 62100 34100 35900 38800 39800 48700 71500 81400 104000 126000
2020-07-08 00:30 11.10 61200 264000 (2011) 31700 (2002) 62100 34100 35900 38800 39800 48700 71500 81400 104000 126000
2020-07-07 23:30 11.10 61200 262000 (2011) 31900 (2002) 63200 34600 36100 38800 40200 47300 69500 85300 116000 132000
2020-07-07 22:30 11.09 61100 262000 (2011) 31900 (2002) 63200 34600 36100 38800 40200 47300 69500 85300 116000 132000
2020-07-07 21:30 11.09 61100 262000 (2011) 31900 (2002) 63200 34600 36100 38800 40200 47300 69500 85300 116000 132000
2020-07-07 20:30 11.12 61300 262000 (2011) 31900 (2002) 63200 34600 36100 38800 40200 47300 69500 85300 116000 132000
2020-07-07 19:30 11.14 61400 262000 (2011) 31900 (2002) 63200 34600 36100 38800 40200 47300 69500 85300 116000 132000
2020-07-07 18:30 11.13 61300 262000 (2011) 31900 (2002) 63200 34600 36100 38800 40200 47300 69500 85300 116000 132000
2020-07-07 17:30 11.12 61300 262000 (2011) 31900 (2002) 63200 34600 36100 38800 40200 47300 69500 85300 116000 132000
2020-07-07 16:30 11.16 61500 262000 (2011) 31900 (2002) 63200 34600 36100 38800 40200 47300 69500 85300 116000 132000
2020-07-07 15:30 11.18 61600 262000 (2011) 31900 (2002) 63200 34600 36100 38800 40200 47300 69500 85300 116000 132000
2020-07-07 14:30 11.18 61600 262000 (2011) 31900 (2002) 63200 34600 36100 38800 40200 47300 69500 85300 116000 132000
2020-07-07 13:30 11.17 61600 262000 (2011) 31900 (2002) 63200 34600 36100 38800 40200 47300 69500 85300 116000 132000
2020-07-07 12:30 11.19 61700 262000 (2011) 31900 (2002) 63200 34600 36100 38800 40200 47300 69500 85300 116000 132000
2020-07-07 11:30 11.20 61700 262000 (2011) 31900 (2002) 63200 34600 36100 38800 40200 47300 69500 85300 116000 132000
2020-07-07 10:30 11.19 61700 262000 (2011) 31900 (2002) 63200 34600 36100 38800 40200 47300 69500 85300 116000 132000
2020-07-07 09:30 11.19 61700 262000 (2011) 31900 (2002) 63200 34600 36100 38800 40200 47300 69500 85300 116000 132000
2020-07-07 08:30 11.19 61700 262000 (2011) 31900 (2002) 63200 34600 36100 38800 40200 47300 69500 85300 116000 132000
2020-07-07 07:30 11.19 61700 262000 (2011) 31900 (2002) 63200 34600 36100 38800 40200 47300 69500 85300 116000 132000
2020-07-07 06:30 11.18 61600 262000 (2011) 31900 (2002) 63200 34600 36100 38800 40200 47300 69500 85300 116000 132000
2020-07-07 05:30 11.21 61800 262000 (2011) 31900 (2002) 63200 34600 36100 38800 40200 47300 69500 85300 116000 132000
2020-07-07 04:30 11.20 61700 262000 (2011) 31900 (2002) 63200 34600 36100 38800 40200 47300 69500 85300 116000 132000
2020-07-07 03:30 11.20 61700 262000 (2011) 31900 (2002) 63200 34600 36100 38800 40200 47300 69500 85300 116000 132000
2020-07-07 02:30 11.22 61900 262000 (2011) 31900 (2002) 63200 34600 36100 38800 40200 47300 69500 85300 116000 132000
2020-07-07 01:30 11.19 61700 262000 (2011) 31900 (2002) 63200 34600 36100 38800 40200 47300 69500 85300 116000 132000
2020-07-07 00:30 11.21 61800 262000 (2011) 31900 (2002) 63200 34600 36100 38800 40200 47300 69500 85300 116000 132000
2020-07-06 23:30 11.19 61700 258000 (2011) 32000 (2002) 63500 35400 36200 39700 40900 48800 72200 86300 121000 137000
2020-07-06 22:30 11.20 61700 258000 (2011) 32000 (2002) 63500 35400 36200 39700 40900 48800 72200 86300 121000 137000
2020-07-06 21:30 11.20 61700 258000 (2011) 32000 (2002) 63500 35400 36200 39700 40900 48800 72200 86300 121000 137000
2020-07-06 20:30 11.20 61700 258000 (2011) 32000 (2002) 63500 35400 36200 39700 40900 48800 72200 86300 121000 137000
2020-07-06 19:30 11.22 61900 258000 (2011) 32000 (2002) 63500 35400 36200 39700 40900 48800 72200 86300 121000 137000
2020-07-06 18:30 11.23 61900 258000 (2011) 32000 (2002) 63500 35400 36200 39700 40900 48800 72200 86300 121000 137000
2020-07-06 17:30 11.22 61900 258000 (2011) 32000 (2002) 63500 35400 36200 39700 40900 48800 72200 86300 121000 137000
2020-07-06 16:30 11.26 62100 258000 (2011) 32000 (2002) 63500 35400 36200 39700 40900 48800 72200 86300 121000 137000
2020-07-06 15:30 11.27 62100 258000 (2011) 32000 (2002) 63500 35400 36200 39700 40900 48800 72200 86300 121000 137000
2020-07-06 14:30 11.29 62300 258000 (2011) 32000 (2002) 63500 35400 36200 39700 40900 48800 72200 86300 121000 137000
2020-07-06 13:30 11.28 62200 258000 (2011) 32000 (2002) 63500 35400 36200 39700 40900 48800 72200 86300 121000 137000
2020-07-06 12:30 11.28 62200 258000 (2011) 32000 (2002) 63500 35400 36200 39700 40900 48800 72200 86300 121000 137000
2020-07-06 11:30 11.32 62400 258000 (2011) 32000 (2002) 63500 35400 36200 39700 40900 48800 72200 86300 121000 137000
2020-07-06 10:30 11.31 62400 258000 (2011) 32000 (2002) 63500 35400 36200 39700 40900 48800 72200 86300 121000 137000
2020-07-06 09:30 11.32 62400 258000 (2011) 32000 (2002) 63500 35400 36200 39700 40900 48800 72200 86300 121000 137000
2020-07-06 08:30 11.33 62500 258000 (2011) 32000 (2002) 63500 35400 36200 39700 40900 48800 72200 86300 121000 137000
2020-07-06 07:30 11.33 62500 258000 (2011) 32000 (2002) 63500 35400 36200 39700 40900 48800 72200 86300 121000 137000
2020-07-06 06:30 11.33 62500 258000 (2011) 32000 (2002) 63500 35400 36200 39700 40900 48800 72200 86300 121000 137000
2020-07-06 05:30 11.32 62400 258000 (2011) 32000 (2002) 63500 35400 36200 39700 40900 48800 72200 86300 121000 137000
2020-07-06 04:30 11.35 62600 258000 (2011) 32000 (2002) 63500 35400 36200 39700 40900 48800 72200 86300 121000 137000
2020-07-06 03:30 11.36 62700 258000 (2011) 32000 (2002) 63500 35400 36200 39700 40900 48800 72200 86300 121000 137000
2020-07-06 02:30 11.38 62800 258000 (2011) 32000 (2002) 63500 35400 36200 39700 40900 48800 72200 86300 121000 137000
2020-07-06 01:30 11.37 62700 258000 (2011) 32000 (2002) 63500 35400 36200 39700 40900 48800 72200 86300 121000 137000
2020-07-06 00:30 11.37 62700 258000 (2011) 32000 (2002) 63500 35400 36200 39700 40900 48800 72200 86300 121000 137000

A total of 188 rows are displayed for years 1958 through 2019.